Time;durP1;ratioP1;P1;durP2;ratioP2;P2;SDS_P1;SDS_P2;PMS_P1;PMS_P2;Temp;Humidity;BMP_temperature;BMP_pressure;BME280_temperature;BME280_humidity;BME280_pressure;Samples;Min_cycle;Max_cycle;Signal;HPM_P1;HPM_P2
2022/08/16 00:04:16;;;;;;;3.17;2.47;;;;;;;25.14;44.30;100528.00;16138310;19;129220;-51
2022/08/16 00:09:38;;;;;;;2.05;1.95;;;;;;;25.13;43.90;100531.94;16136819;19;130139;-49
2022/08/16 00:15:06;;;;;;;3.42;2.65;;;;;;;25.14;44.08;100529.97;16133998;19;130811;-54
2022/08/16 00:20:33;;;;;;;3.08;2.05;;;;;;;25.12;43.95;100532.22;16133161;19;129074;-48
2022/08/16 00:25:55;;;;;;;2.85;2.17;;;;;;;25.13;43.67;100531.09;16136436;19;130199;-53
2022/08/16 00:31:37;;;;;;;2.58;2.17;;;;;;;25.12;44.08;100541.44;16135331;19;129566;-56
2022/08/16 00:37:23;;;;;;;4.35;2.20;;;;;;;25.12;44.08;100541.44;16135062;19;129758;-56
2022/08/16 00:43:12;;;;;;;2.70;2.30;;;;;;;25.12;43.81;100540.63;16130018;19;129909;-51
2022/08/16 00:48:40;;;;;;;2.97;2.22;;;;;;;25.12;43.69;100547.06;16134679;19;129536;-49
2022/08/16 00:54:06;;;;;;;2.90;2.05;;;;;;;25.11;43.81;100542.59;16130765;19;129580;-52
2022/08/16 00:59:36;;;;;;;3.08;2.33;;;;;;;25.09;43.64;100542.06;16130748;19;129583;-51
2022/08/16 01:05:15;;;;;;;2.63;2.00;;;;;;;25.07;43.77;100537.88;16134797;19;129295;-52
2022/08/16 01:10:39;;;;;;;5.18;2.33;;;;;;;25.04;43.84;100547.72;16135669;19;129530;-52
2022/08/16 01:16:20;;;;;;;5.65;2.28;;;;;;;25.03;43.74;100543.25;16134319;19;129861;-51
2022/08/16 01:21:56;;;;;;;2.78;2.28;;;;;;;25.01;43.68;100534.31;16134456;19;129826;-52
2022/08/16 01:27:44;;;;;;;3.83;2.10;;;;;;;24.98;43.87;100544.16;16141779;19;129313;-47
2022/08/16 01:33:07;;;;;;;5.78;2.28;;;;;;;24.96;43.56;100538.03;16151546;19;129604;-52
2022/08/16 01:38:38;;;;;;;2.88;2.25;;;;;;;24.95;43.63;100546.72;16147615;19;129254;-54
2022/08/16 01:44:08;;;;;;;3.70;2.30;;;;;;;24.95;43.51;100543.94;16144810;19;129481;-49
2022/08/16 01:49:33;;;;;;;3.28;2.22;;;;;;;24.95;43.40;100557.94;16147177;19;130851;-55
2022/08/16 01:55:16;;;;;;;6.63;2.40;;;;;;;24.93;43.38;100554.59;16147282;19;129694;-52
2022/08/16 02:00:39;;;;;;;3.60;2.25;;;;;;;24.92;43.55;100552.91;16147143;19;129055;-53
2022/08/16 02:06:00;;;;;;;3.50;2.38;;;;;;;24.88;43.24;100550.72;16148188;19;129482;-55
2022/08/16 02:11:28;;;;;;;4.55;2.30;;;;;;;24.87;43.47;100551.81;16148776;19;129139;-51
2022/08/16 02:17:11;;;;;;;3.25;2.10;;;;;;;24.87;43.61;100551.81;16144453;19;129518;-57
2022/08/16 02:22:34;;;;;;;2.60;1.90;;;;;;;24.87;43.13;100554.59;16144475;19;130493;-52
2022/08/16 02:28:07;;;;;;;2.72;2.05;;;;;;;24.86;43.34;100549.31;16142010;19;129564;-51
2022/08/16 02:33:29;;;;;;;4.57;2.13;;;;;;;24.86;43.30;100544.53;16146270;19;131020;-54
2022/08/16 02:39:07;;;;;;;3.38;2.22;;;;;;;24.84;43.31;100543.19;16144878;19;130697;-51
2022/08/16 02:44:29;;;;;;;3.05;2.10;;;;;;;24.82;43.27;100535.09;16142658;19;130018;-51
2022/08/16 02:49:51;;;;;;;2.88;2.20;;;;;;;24.81;43.27;100533.44;16147317;19;129391;-52
2022/08/16 02:55:32;;;;;;;2.92;2.05;;;;;;;24.82;43.14;100537.06;16142428;19;130589;-47
2022/08/16 03:01:02;;;;;;;2.80;2.08;;;;;;;24.80;42.90;100542.97;16142583;19;129080;-52
2022/08/16 03:06:26;;;;;;;6.82;2.20;;;;;;;24.80;43.15;100542.13;16144640;19;130488;-48
2022/08/16 03:12:04;;;;;;;6.18;2.28;;;;;;;24.79;43.08;100541.28;16144252;19;129034;-53
2022/08/16 03:17:27;;;;;;;2.17;1.98;;;;;;;24.78;43.26;100536.81;16144391;19;129947;-53
2022/08/16 03:22:53;;;;;;;2.63;2.10;;;;;;;24.76;43.14;100536.28;16141774;19;129472;-51
2022/08/16 03:28:17;;;;;;;1.98;1.88;;;;;;;24.75;43.14;100528.19;16144401;19;130299;-51
2022/08/16 03:33:38;;;;;;;3.28;2.08;;;;;;;24.74;43.29;100530.16;16136317;19;130492;-52
2022/08/16 03:39:00;;;;;;;3.40;2.20;;;;;;;24.73;43.12;100531.31;16136591;19;129215;-54
2022/08/16 03:44:23;;;;;;;3.30;2.10;;;;;;;24.72;42.79;100538.84;16130217;19;129461;-53
2022/08/16 03:50:07;;;;;;;3.78;2.17;;;;;;;24.72;42.97;100538.84;16132205;19;130339;-52
2022/08/16 03:55:47;;;;;;;2.85;2.20;;;;;;;24.72;43.27;100547.25;16133184;19;129127;-53
2022/08/16 04:01:13;;;;;;;4.65;2.08;;;;;;;24.70;42.95;100554.28;16140071;19;129718;-52
2022/08/16 04:06:36;;;;;;;5.97;2.47;;;;;;;24.70;43.23;100562.66;16139992;19;129635;-53
2022/08/16 04:11:58;;;;;;;8.45;2.45;;;;;;;24.69;43.24;100564.59;16140669;19;130362;-53
2022/08/16 04:17:20;;;;;;;6.80;2.20;;;;;;;24.68;42.90;100567.72;16139383;19;129540;-61
2022/08/16 04:22:44;;;;;;;5.13;2.47;;;;;;;24.68;43.01;100573.31;16140069;19;130795;-52
2022/08/16 04:28:10;;;;;;;7.93;2.30;;;;;;;24.67;42.85;100591.22;16140838;19;129001;-53
2022/08/16 04:33:58;;;;;;;6.45;2.33;;;;;;;24.66;42.79;100578.34;16138080;19;130037;-52
2022/08/16 04:39:19;;;;;;;10.13;2.38;;;;;;;24.65;42.87;100582.28;16140497;19;129307;-52
2022/08/16 04:44:45;;;;;;;5.00;2.25;;;;;;;24.64;42.72;100573.06;16133448;19;129775;-52
2022/08/16 04:50:18;;;;;;;3.78;2.47;;;;;;;24.64;42.81;100566.63;16139368;19;129832;-50
2022/08/16 04:55:41;;;;;;;6.80;2.25;;;;;;;24.63;43.13;100581.75;16133889;19;129625;-52
2022/08/16 05:01:05;;;;;;;2.95;2.22;;;;;;;24.62;42.78;100594.06;16132745;19;130302;-49
2022/08/16 05:06:29;;;;;;;4.97;2.47;;;;;;;24.62;42.87;100600.50;16136807;19;130254;-52
2022/08/16 05:12:06;;;;;;;3.90;2.70;;;;;;;24.61;42.87;100600.81;16134977;19;128963;-51
2022/08/16 05:17:31;;;;;;;6.55;2.42;;;;;;;24.60;42.79;100596.34;16135887;19;130435;-53
2022/08/16 05:22:53;;;;;;;4.63;2.67;;;;;;;24.61;42.90;100595.22;16133604;19;129571;-53
2022/08/16 05:28:17;;;;;;;4.75;2.38;;;;;;;24.59;42.56;100623.47;16136490;19;129182;-49
2022/08/16 05:33:39;;;;;;;8.25;2.80;;;;;;;24.58;42.83;100611.44;16131681;19;129176;-53
2022/08/16 05:39:06;;;;;;;5.55;2.55;;;;;;;24.58;42.91;100617.03;16135643;19;129123;-53
2022/08/16 05:44:29;;;;;;;3.50;2.10;;;;;;;24.58;42.76;100622.63;16131457;19;129499;-48
2022/08/16 05:49:52;;;;;;;6.60;2.35;;;;;;;24.57;43.05;100615.38;16133801;19;129833;-53
2022/08/16 05:55:14;;;;;;;2.45;1.80;;;;;;;24.57;42.69;100626.56;16130302;19;130087;-48
2022/08/16 06:00:35;;;;;;;2.72;2.28;;;;;;;24.56;42.81;100630.47;16133689;19;129706;-49
2022/08/16 06:05:58;;;;;;;8.52;2.45;;;;;;;24.57;43.05;100632.16;16133166;19;129094;-54
2022/08/16 06:11:21;;;;;;;3.42;2.30;;;;;;;24.58;42.79;100639.41;16132805;19;129425;-53
2022/08/16 06:16:46;;;;;;;15.10;4.50;;;;;;;24.57;42.44;100637.75;16137997;19;131234;-51
2022/08/16 06:22:11;;;;;;;15.75;6.50;;;;;;;24.39;43.08;100638.47;16143917;19;130532;-48
2022/08/16 06:27:53;;;;;;;16.33;7.13;;;;;;;24.25;43.07;100641.09;16145787;19;129609;-49
2022/08/16 06:33:18;;;;;;;15.88;7.90;;;;;;;24.18;43.49;100637.78;16143084;19;130476;-48
2022/08/16 06:38:43;;;;;;;12.53;8.07;;;;;;;24.18;43.75;100646.16;16145224;19;129239;-47
2022/08/16 06:44:17;;;;;;;14.65;7.25;;;;;;;24.21;43.85;100651.16;16138574;19;130120;-48
2022/08/16 06:49:42;;;;;;;13.57;6.97;;;;;;;24.23;44.12;100652.56;16140632;19;130433;-48
2022/08/16 06:55:16;;;;;;;17.52;6.97;;;;;;;24.26;44.08;100651.97;16133663;19;129615;-47
2022/08/16 07:00:37;;;;;;;8.87;6.07;;;;;;;24.29;43.82;100647.78;16143779;19;130213;-47
2022/08/16 07:06:04;;;;;;;12.75;7.55;;;;;;;24.34;44.36;100656.13;16141001;19;130266;-51
2022/08/16 07:11:26;;;;;;;9.85;6.78;;;;;;;24.39;44.06;100652.44;16140463;19;130509;-46
2022/08/16 07:17:07;;;;;;;13.35;7.25;;;;;;;24.41;44.21;100656.63;16140905;19;129343;-49
2022/08/16 07:22:33;;;;;;;11.77;6.07;;;;;;;24.44;44.05;100660.78;16138468;19;132179;-46
2022/08/16 07:28:00;;;;;;;10.00;6.20;;;;;;;24.46;44.10;100668.88;16138209;19;130618;-48
2022/08/16 07:33:22;;;;;;;12.80;6.50;;;;;;;24.47;43.93;100676.13;16143259;19;129653;-48
2022/08/16 07:39:04;;;;;;;10.13;5.97;;;;;;;24.49;43.95;100679.47;16142942;19;130546;-45
2022/08/16 07:44:26;;;;;;;15.43;6.78;;;;;;;24.51;43.82;100689.25;16138100;19;129952;-48
2022/08/16 07:50:09;;;;;;;12.07;6.07;;;;;;;24.51;43.53;100683.66;16142200;19;129505;-45
2022/08/16 07:55:51;;;;;;;10.45;5.95;;;;;;;24.55;43.31;100695.94;16138363;19;131044;-48
2022/08/16 08:01:13;;;;;;;8.13;5.40;;;;;;;24.55;43.59;100690.34;16136807;19;129392;-48
2022/08/16 08:06:37;;;;;;;12.80;5.68;;;;;;;24.56;43.45;100685.56;16127111;19;129727;-48
2022/08/16 08:11:59;;;;;;;21.85;6.15;;;;;;;24.58;43.19;100688.91;16135035;19;130058;-51
2022/08/16 08:17:28;;;;;;;19.52;6.07;;;;;;;24.62;42.96;100700.34;16127575;19;129485;-49
2022/08/16 08:23:04;;;;;;;22.85;6.25;;;;;;;24.62;42.86;100705.94;16127420;19;129412;-50
2022/08/16 08:28:30;;;;;;;15.52;6.43;;;;;;;24.62;42.24;100705.94;16134309;19;129319;-51
2022/08/16 08:33:55;;;;;;;21.77;6.32;;;;;;;24.64;42.21;100714.88;16130195;19;133295;-49
2022/08/16 08:39:18;;;;;;;11.07;5.40;;;;;;;24.64;42.22;100714.88;16133796;19;128934;-48
2022/08/16 08:44:41;;;;;;;10.68;5.55;;;;;;;24.65;41.83;100717.38;16134847;19;130016;-52
2022/08/16 08:50:05;;;;;;;10.43;5.18;;;;;;;24.66;41.54;100719.06;16138600;19;129319;-51
2022/08/16 08:55:27;;;;;;;15.10;5.53;;;;;;;24.68;41.68;100716.78;16136430;19;129867;-53
2022/08/16 09:00:51;;;;;;;11.32;5.05;;;;;;;24.71;41.45;100720.97;16132852;19;130403;-48
2022/08/16 09:06:12;;;;;;;6.68;4.63;;;;;;;24.70;40.90;100736.09;16132241;19;130061;-51
2022/08/16 09:11:42;;;;;;;12.88;4.50;;;;;;;24.69;41.16;100720.44;16135775;19;129197;-49
2022/08/16 09:17:05;;;;;;;16.90;5.47;;;;;;;24.70;41.16;100722.09;16135853;19;129819;-52
2022/08/16 09:22:48;;;;;;;8.30;4.68;;;;;;;24.63;41.43;100729.97;16132679;19;129746;-49
2022/08/16 09:28:13;;;;;;;8.98;4.05;;;;;;;24.58;41.80;100734.50;16132921;19;129677;-49
2022/08/16 09:33:55;;;;;;;12.70;4.20;;;;;;;24.56;41.71;100739.56;16136802;19;130887;-50
2022/08/16 09:39:17;;;;;;;10.43;3.83;;;;;;;24.56;42.33;100747.94;16135501;19;129375;-56
2022/08/16 09:44:41;;;;;;;14.70;4.05;;;;;;;24.55;42.26;100746.28;16132221;19;129577;-54
2022/08/16 09:50:25;;;;;;;6.82;4.03;;;;;;;24.54;42.01;100741.81;16145946;19;130437;-53
2022/08/16 09:56:00;;;;;;;10.02;3.60;;;;;;;24.57;42.16;100741.22;16146817;19;130099;-54
2022/08/16 10:01:23;;;;;;;9.15;3.88;;;;;;;24.57;42.54;100748.75;16148090;19;129859;-53
2022/08/16 10:06:45;;;;;;;5.35;3.35;;;;;;;24.56;42.63;100745.16;16145769;19;132544;-53
2022/08/16 10:17:52;;;;;;;7.45;3.55;;;;;;;24.58;42.32;100733.66;16147757;19;129392;-50
2022/08/16 10:23:22;;;;;;;7.47;3.00;;;;;;;24.61;42.34;100743.44;16143101;19;131915;-51
2022/08/16 10:28:44;;;;;;;11.13;3.40;;;;;;;24.61;41.89;100749.84;16142241;19;129444;-50
2022/08/16 10:34:10;;;;;;;8.45;2.90;;;;;;;24.62;41.89;100745.09;16145321;19;129438;-52
2022/08/16 10:39:52;;;;;;;5.18;2.67;;;;;;;24.61;42.14;100749.03;16145807;19;129276;-52
2022/08/16 10:45:17;;;;;;;9.13;3.33;;;;;;;24.61;41.82;100746.25;16138652;19;129757;-53
2022/08/16 10:50:39;;;;;;;6.43;3.13;;;;;;;24.58;41.93;100747.63;16143509;19;129630;-46
2022/08/16 10:56:06;;;;;;;6.32;3.45;;;;;;;24.58;42.12;100750.44;16136469;19;129849;-53
2022/08/16 11:01:48;;;;;;;13.93;3.08;;;;;;;24.58;42.33;100759.69;16139818;19;130303;-53
2022/08/16 11:07:29;;;;;;;12.70;3.20;;;;;;;24.62;41.84;100761.88;16144619;19;130079;-54
2022/08/16 11:13:17;;;;;;;9.30;3.20;;;;;;;24.67;41.86;100759.91;16143281;19;130163;-52
2022/08/16 11:18:59;;;;;;;7.93;2.63;;;;;;;24.77;41.41;100764.56;16143224;19;129941;-51
2022/08/16 11:24:28;;;;;;;6.47;3.28;;;;;;;24.85;41.54;100761.16;16137044;19;129675;-51
2022/08/16 11:30:05;;;;;;;9.77;3.67;;;;;;;24.95;41.27;100776.19;16143875;19;129152;-54
2022/08/16 11:35:32;;;;;;;10.48;2.85;;;;;;;25.02;41.02;100776.69;16141897;19;129468;-50
2022/08/16 11:41:14;;;;;;;9.10;3.70;;;;;;;25.07;40.80;100768.25;16139511;19;129663;-50
2022/08/16 11:46:36;;;;;;;8.50;3.20;;;;;;;25.13;40.60;100778.25;16134870;19;130571;-48
2022/08/16 11:52:06;;;;;;;16.73;3.78;;;;;;;25.17;40.65;100765.34;16139680;19;129976;-52
2022/08/16 11:57:28;;;;;;;24.25;4.07;;;;;;;25.29;41.06;100780.91;16134643;19;129841;-52
2022/08/16 12:02:52;;;;;;;35.30;5.17;;;;;;;25.37;40.85;100777.44;16130802;19;129763;-49
2022/08/16 12:08:14;;;;;;;40.50;5.15;;;;;;;25.45;40.78;100768.41;16140191;19;129549;-49
2022/08/16 12:13:41;;;;;;;23.70;4.23;;;;;;;25.46;41.08;100781.28;16138376;19;128973;-50
2022/08/16 12:19:06;;;;;;;33.83;4.27;;;;;;;25.50;40.78;100767.53;16141294;19;131582;-50
2022/08/16 12:24:34;;;;;;;36.30;4.30;;;;;;;25.54;41.00;100776.19;16137509;19;129958;-51
2022/08/16 12:29:55;;;;;;;31.63;5.07;;;;;;;25.56;41.07;100768.31;16139182;19;129773;-53
2022/08/16 12:35:20;;;;;;;20.25;4.25;;;;;;;25.57;40.71;100776.41;16137163;19;129058;-53
2022/08/16 12:40:48;;;;;;;20.33;4.60;;;;;;;25.60;40.68;100772.22;16138229;19;129403;-49
2022/08/16 12:46:13;;;;;;;23.52;4.72;;;;;;;25.61;40.98;100777.50;16132850;19;130085;-51
2022/08/16 12:51:40;;;;;;;13.88;4.20;;;;;;;25.62;40.57;100772.72;16136467;19;129794;-51
2022/08/16 12:57:23;;;;;;;15.90;4.13;;;;;;;25.62;40.47;100770.78;16136479;19;129329;-52
2022/08/16 13:02:58;;;;;;;11.23;3.72;;;;;;;25.62;40.63;100767.97;16136014;19;129512;-52
2022/08/16 13:08:21;;;;;;;9.60;3.55;;;;;;;25.62;40.70;100770.78;16136904;19;129469;-53
2022/08/16 13:13:48;;;;;;;12.88;3.60;;;;;;;25.60;40.27;100763.81;16135973;19;129483;-49
2022/08/16 13:19:15;;;;;;;10.45;3.97;;;;;;;25.63;40.46;100768.78;16135778;19;130362;-51
2022/08/16 13:24:37;;;;;;;9.57;4.10;;;;;;;25.62;40.56;100769.91;16140352;19;129496;-49
2022/08/16 13:30:01;;;;;;;8.30;3.70;;;;;;;25.62;40.40;100767.13;16148974;19;129611;-52
2022/08/16 13:35:46;;;;;;;8.15;3.55;;;;;;;25.62;40.46;100764.31;16150515;19;129355;-51
2022/08/16 13:41:18;;;;;;;6.65;3.50;;;;;;;25.59;40.51;100765.75;16144357;19;129269;-50
2022/08/16 13:46:40;;;;;;;10.68;3.83;;;;;;;25.57;40.13;100764.41;16145391;19;129225;-55
2022/08/16 13:52:02;;;;;;;8.70;4.28;;;;;;;25.57;40.42;100781.19;16146327;19;131085;-52
2022/08/16 13:57:27;;;;;;;11.40;4.20;;;;;;;25.57;40.61;100775.59;16146536;19;129144;-51
2022/08/16 14:03:08;;;;;;;17.83;4.70;;;;;;;25.58;40.14;100760.47;16150195;19;129303;-49
2022/08/16 14:08:31;;;;;;;14.35;4.28;;;;;;;25.59;40.19;100762.13;16149977;19;129513;-49
2022/08/16 14:13:53;;;;;;;11.90;4.40;;;;;;;25.58;40.06;100766.06;16149021;19;129181;-53
2022/08/16 14:19:17;;;;;;;11.90;5.25;;;;;;;25.59;40.21;100770.53;16147947;19;130300;-50
2022/08/16 14:24:44;;;;;;;9.75;4.25;;;;;;;25.61;39.85;100759.84;16145307;19;130840;-51
2022/08/16 14:30:10;;;;;;;12.00;4.47;;;;;;;25.60;39.93;100764.63;16146443;19;129725;-49
2022/08/16 14:35:36;;;;;;;11.88;4.38;;;;;;;25.58;39.75;100757.66;16141277;19;129280;-47
2022/08/16 14:41:10;;;;;;;6.35;3.85;;;;;;;25.56;39.87;100746.75;16143537;19;129984;-47
2022/08/16 14:46:33;;;;;;;6.95;3.95;;;;;;;25.59;40.07;100756.53;16143104;19;129385;-57
2022/08/16 14:52:00;;;;;;;10.75;4.63;;;;;;;25.59;40.28;100757.34;16145378;19;129352;-48
2022/08/16 14:57:22;;;;;;;15.43;4.45;;;;;;;25.61;40.18;100757.91;16145476;19;129133;-45
2022/08/16 15:02:51;;;;;;;18.38;4.93;;;;;;;25.67;40.60;100763.41;16145977;19;129990;-48
2022/08/16 15:08:15;;;;;;;11.82;4.40;;;;;;;25.68;40.60;100765.94;16146219;19;129890;-51
2022/08/16 15:13:40;;;;;;;14.13;4.43;;;;;;;25.70;40.50;100762.81;16144059;19;129248;-47
2022/08/16 15:19:02;;;;;;;12.07;5.10;;;;;;;25.69;40.61;100755.56;16144386;19;129249;-51
2022/08/16 15:24:24;;;;;;;20.25;5.05;;;;;;;25.67;40.27;100767.06;16141926;19;129646;-50
2022/08/16 15:29:46;;;;;;;20.45;4.95;;;;;;;25.67;40.60;100763.41;16146903;19;129392;-53
2022/08/16 15:35:14;;;;;;;35.90;6.70;;;;;;;25.69;40.67;100766.75;16138483;19;128989;-54
2022/08/16 15:40:39;;;;;;;22.67;6.00;;;;;;;25.70;40.95;100765.63;16143853;19;129058;-53
2022/08/16 15:46:22;;;;;;;16.33;5.63;;;;;;;25.73;41.19;100765.84;16138701;19;130623;-56
2022/08/16 15:52:21;;;;;;;24.65;5.80;;;;;;;25.77;40.90;100774.53;16142136;19;129410;-48
2022/08/16 15:57:49;;;;;;;;;;;;;;;25.78;40.76;100777.03;16142706;19;130253;-53
2022/08/16 16:03:15;;;;;;;17.70;5.80;;;;;;;25.84;40.81;100763.78;16141298;19;129738;-53
2022/08/16 16:08:37;;;;;;;13.82;4.97;;;;;;;25.84;40.68;100754.53;16140999;19;129036;-51
2022/08/16 16:14:02;;;;;;;13.15;5.72;;;;;;;25.84;40.48;100757.34;16140828;19;129133;-53
2022/08/16 16:19:27;;;;;;;10.88;4.80;;;;;;;25.84;40.35;100751.75;16139605;19;129884;-54
2022/08/16 16:24:51;;;;;;;12.50;5.60;;;;;;;25.83;40.35;100752.88;16137983;19;129465;-50
2022/08/16 16:30:14;;;;;;;11.75;4.65;;;;;;;25.84;40.40;100748.94;16136806;19;129476;-49
2022/08/16 16:35:58;;;;;;;8.85;4.82;;;;;;;25.83;40.43;100758.47;16135793;19;130054;-52
2022/08/16 16:41:24;;;;;;;9.70;5.10;;;;;;;25.82;40.56;100754.00;16140613;19;129618;-51
2022/08/16 16:46:46;;;;;;;17.30;5.85;;;;;;;25.77;40.24;100747.31;16135580;19;129771;-53
2022/08/16 16:52:18;;;;;;;6.78;4.47;;;;;;;25.70;40.55;100751.63;16137985;19;129320;-56
2022/08/16 17:03:49;;;;;;;10.15;4.63;;;;;;;25.60;40.27;100750.63;16137480;19;129481;-57
2022/08/16 17:09:14;;;;;;;9.40;5.07;;;;;;;25.57;40.10;100742.00;16138593;19;129908;-57
2022/08/16 17:14:38;;;;;;;10.82;4.63;;;;;;;25.55;40.11;100738.66;16131759;19;130174;-56
2022/08/16 17:20:04;;;;;;;9.27;4.53;;;;;;;25.53;40.14;100736.16;16136334;19;130162;-56
2022/08/16 17:25:33;;;;;;;7.50;4.43;;;;;;;25.51;40.19;100743.97;16132739;19;129222;-52
2022/08/16 17:30:58;;;;;;;7.30;4.18;;;;;;;25.48;40.17;100728.59;16136478;19;130036;-52
2022/08/16 17:36:20;;;;;;;8.75;4.38;;;;;;;25.46;39.72;100733.69;16134501;19;129608;-51
2022/08/16 17:42:00;;;;;;;5.95;4.03;;;;;;;25.46;40.05;100739.28;16138330;19;129057;-52
2022/08/16 17:47:22;;;;;;;5.17;3.73;;;;;;;25.44;39.82;100733.13;16128400;19;128944;-53
2022/08/16 17:52:49;;;;;;;6.38;3.75;;;;;;;25.44;40.22;100729.50;16128052;19;129512;-51
2022/08/16 17:58:11;;;;;;;5.15;3.70;;;;;;;25.42;39.88;100741.00;16133834;19;128926;-50
2022/08/16 18:03:44;;;;;;;4.97;3.85;;;;;;;25.40;39.98;100737.66;16128199;19;130405;-50
2022/08/16 18:09:26;;;;;;;32.58;4.70;;;;;;;25.43;40.00;100736.22;16132924;19;129541;-52
2022/08/16 18:14:51;;;;;;;12.35;4.18;;;;;;;25.48;40.20;100739.78;16145449;19;129063;-46
2022/08/16 18:26:05;;;;;;;8.68;3.67;;;;;;;25.56;39.88;100745.91;16145728;19;128855;-48
2022/08/16 18:31:27;;;;;;;22.98;4.93;;;;;;;25.54;40.38;100740.59;16140141;19;129109;-54
2022/08/16 18:36:49;;;;;;;50.80;6.85;;;;;;;25.51;40.63;100758.00;16145681;19;130612;-49
2022/08/16 18:42:13;;;;;;;30.75;4.78;;;;;;;25.54;40.75;100764.97;16146722;19;129533;-49
2022/08/16 18:47:35;;;;;;;27.52;4.68;;;;;;;25.57;40.59;100776.41;16141559;19;129385;-47
2022/08/16 18:52:59;;;;;;;35.92;6.07;;;;;;;25.59;40.80;100781.75;16145697;19;130322;-53
2022/08/16 18:58:21;;;;;;;26.58;4.55;;;;;;;25.58;40.90;100789.28;16145835;19;130672;-53
2022/08/16 19:03:43;;;;;;;11.02;4.05;;;;;;;25.55;40.00;100786.25;16144331;19;129811;-48
2022/08/16 19:09:05;;;;;;;14.50;4.30;;;;;;;25.43;39.43;100790.28;16137401;19;129407;-53
2022/08/16 19:14:28;;;;;;;24.17;4.65;;;;;;;25.40;39.71;100793.66;16143405;19;129901;-51
2022/08/16 19:19:50;;;;;;;21.27;4.45;;;;;;;25.44;39.72;100808.75;16142087;19;129552;-49
2022/08/16 19:25:12;;;;;;;12.38;4.50;;;;;;;25.46;39.71;100826.09;16143375;19;129926;-54
2022/08/16 19:30:36;;;;;;;13.80;3.83;;;;;;;25.47;39.64;100833.38;16145161;19;129781;-53
2022/08/16 19:35:58;;;;;;;15.00;4.57;;;;;;;25.49;39.92;100844.28;16144615;19;129588;-53
2022/08/16 19:41:20;;;;;;;16.90;4.13;;;;;;;25.47;39.78;100838.97;16147414;19;129357;-54
2022/08/16 19:46:43;;;;;;;13.98;4.13;;;;;;;25.47;40.04;100850.19;16140021;19;129467;-54
2022/08/16 19:52:09;;;;;;;15.35;4.75;;;;;;;25.47;40.21;100852.13;16141207;19;130102;-53
2022/08/16 19:57:32;;;;;;;23.02;4.65;;;;;;;25.46;39.92;100853.25;16140686;19;129786;-54
2022/08/16 20:02:55;;;;;;;23.20;4.55;;;;;;;25.44;40.21;100856.38;16138839;19;129201;-51
2022/08/16 20:08:17;;;;;;;18.55;4.28;;;;;;;25.43;40.17;100860.28;16136699;19;129349;-53
2022/08/16 20:13:40;;;;;;;13.68;4.72;;;;;;;25.42;40.68;100860.56;16143421;19;129313;-49
2022/08/16 20:19:03;;;;;;;17.95;4.53;;;;;;;25.42;41.26;100852.16;16142136;19;129704;-54
2022/08/16 20:24:25;;;;;;;10.38;4.30;;;;;;;25.40;40.87;100832.88;16137218;19;130522;-53
2022/08/16 20:29:56;;;;;;;10.93;4.03;;;;;;;25.39;41.37;100841.56;16138769;19;129192;-51
2022/08/16 20:35:22;;;;;;;14.25;4.32;;;;;;;25.37;41.42;100844.66;16140514;19;129794;-50
2022/08/16 20:40:44;;;;;;;9.57;4.20;;;;;;;25.37;41.78;100849.44;16138520;19;129222;-53
2022/08/16 20:46:07;;;;;;;12.50;4.00;;;;;;;25.35;41.70;100844.13;16136606;19;129319;-51
2022/08/16 20:51:29;;;;;;;9.95;4.00;;;;;;;25.35;42.02;100852.53;16139441;19;129476;-54
2022/08/16 20:57:07;;;;;;;11.85;4.03;;;;;;;25.34;42.09;100862.06;16136587;19;129374;-49
2022/08/16 21:02:29;;;;;;;14.07;4.25;;;;;;;25.33;42.46;100868.78;16136142;19;129188;-50
2022/08/16 21:07:53;;;;;;;10.98;4.00;;;;;;;25.32;42.72;100865.16;16131581;19;128905;-55
2022/08/16 21:13:20;;;;;;;8.75;4.10;;;;;;;25.31;42.73;100862.66;16135288;19;130676;-53
2022/08/16 21:18:42;;;;;;;9.70;3.72;;;;;;;25.30;42.68;100860.97;16133411;19;129821;-51
2022/08/16 21:24:04;;;;;;;9.73;3.80;;;;;;;25.28;43.04;100868.81;16136427;19;129217;-51
2022/08/16 21:29:26;;;;;;;4.95;3.90;;;;;;;25.26;43.28;100882.28;16133157;19;130041;-53
2022/08/16 21:35:10;;;;;;;5.15;3.80;;;;;;;25.25;43.23;100887.06;16135225;19;130297;-53
2022/08/16 21:40:33;;;;;;;8.68;3.60;;;;;;;25.24;43.46;100878.94;16137954;19;129532;-51
2022/08/16 21:45:55;;;;;;;9.57;4.32;;;;;;;25.22;43.48;100873.63;16141113;19;129312;-47
2022/08/16 21:51:21;;;;;;;6.47;3.65;;;;;;;25.22;43.63;100870.03;16147611;19;129246;-53
2022/08/16 21:56:43;;;;;;;5.97;3.80;;;;;;;25.20;43.57;100864.69;16146244;19;129043;-51
2022/08/16 22:02:05;;;;;;;6.07;3.50;;;;;;;25.19;43.89;100882.63;16149961;19;130109;-52
2022/08/16 22:07:27;;;;;;;9.98;4.05;;;;;;;25.19;44.00;100885.41;16147584;19;130043;-49
2022/08/16 22:12:50;;;;;;;5.13;3.85;;;;;;;25.19;44.06;100891.00;16146464;19;129474;-53
2022/08/16 22:18:13;;;;;;;4.97;4.10;;;;;;;25.17;44.17;100882.91;16148365;19;128964;-49
2022/08/16 22:23:35;;;;;;;5.28;3.80;;;;;;;25.17;44.31;100880.13;16146194;19;130536;-50
2022/08/16 22:29:03;;;;;;;6.53;3.92;;;;;;;25.17;44.40;100870.91;16141915;19;129848;-47
2022/08/16 22:34:25;;;;;;;5.63;3.65;;;;;;;25.15;44.73;100871.19;16145376;19;130666;-47
2022/08/16 22:39:47;;;;;;;6.78;3.90;;;;;;;25.15;44.63;100854.38;16146961;19;129480;-51
2022/08/16 22:45:10;;;;;;;7.80;3.90;;;;;;;25.16;44.67;100866.44;16142422;19;129269;-53
2022/08/16 22:50:35;;;;;;;4.40;3.65;;;;;;;25.14;44.43;100866.69;16141950;19;128896;-51
2022/08/16 22:55:56;;;;;;;6.88;3.58;;;;;;;25.12;44.66;100866.16;16137352;19;129411;-52
2022/08/16 23:01:21;;;;;;;6.50;3.70;;;;;;;25.12;44.48;100873.72;16140052;19;131234;-47
2022/08/16 23:06:43;;;;;;;5.13;3.63;;;;;;;25.12;44.54;100871.75;16134441;19;129784;-51
2022/08/16 23:12:06;;;;;;;4.55;3.65;;;;;;;25.11;44.55;100878.47;16141145;19;129538;-57
2022/08/16 23:17:28;;;;;;;11.82;3.50;;;;;;;25.09;45.26;100877.09;16139770;19;130348;-51
2022/08/16 23:22:56;;;;;;;5.82;3.67;;;;;;;25.09;44.92;100860.31;16138931;19;130189;-49
2022/08/16 23:28:38;;;;;;;5.38;3.55;;;;;;;25.07;45.15;100869.00;16136045;19;129211;-46
2022/08/16 23:34:00;;;;;;;5.47;3.72;;;;;;;25.07;45.09;100869.00;16138146;19;129447;-47
2022/08/16 23:39:23;;;;;;;5.03;3.83;;;;;;;25.08;45.19;100870.69;16138853;19;129696;-52
2022/08/16 23:44:45;;;;;;;3.65;3.35;;;;;;;25.07;44.96;100859.75;16138229;19;129557;-57
2022/08/16 23:50:20;;;;;;;4.03;3.63;;;;;;;25.06;45.00;100856.13;16135629;19;130385;-50
2022/08/16 23:55:46;;;;;;;3.80;3.20;;;;;;;25.07;45.38;100843.81;16135672;19;129576;-53
